Time;durP1;ratioP1;P1;durP2;ratioP2;P2;SDS_P1;SDS_P2;PMS_P1;PMS_P2;Temp;Humidity;BMP_temperature;BMP_pressure;BME280_temperature;BME280_humidity;BME280_pressure;Samples;Min_cycle;Max_cycle;Signal;HPM_P1;HPM_P2
2024/01/08 00:01:13;;;;;;;7.95;5.25;;;3.20;66.10;;;;;;5026282;28;20120;-63
2024/01/08 00:03:42;;;;;;;5.60;4.90;;;3.20;66.00;;;;;;5026361;28;20129;-61
2024/01/08 00:06:09;;;;;;;5.82;5.03;;;3.30;65.90;;;;;;5022858;28;20117;-63
2024/01/08 00:08:40;;;;;;;5.30;3.87;;;3.30;65.80;;;;;;5028186;28;20045;-62
2024/01/08 00:11:06;;;;;;;6.25;5.22;;;3.30;65.60;;;;;;5028546;28;20287;-62
2024/01/08 00:13:35;;;;;;;7.90;4.95;;;3.30;65.40;;;;;;5024590;28;20034;-64
2024/01/08 00:16:01;;;;;;;7.43;4.95;;;3.20;65.20;;;;;;5028523;28;20132;-63
2024/01/08 00:18:29;;;;;;;7.60;5.35;;;3.30;65.20;;;;;;5026108;28;20145;-62
2024/01/08 00:21:02;;;;;;;7.88;5.97;;;3.30;65.10;;;;;;5032129;28;20464;-63
2024/01/08 00:23:30;;;;;;;7.20;5.43;;;3.30;64.80;;;;;;5032927;28;20120;-64
2024/01/08 00:25:58;;;;;;;10.05;6.60;;;3.30;64.70;;;;;;5029838;28;20065;-62
2024/01/08 00:28:28;;;;;;;8.07;5.85;;;3.30;64.80;;;;;;5031762;28;20042;-63
2024/01/08 00:30:59;;;;;;;9.50;7.10;;;3.30;64.60;;;;;;5031798;28;20045;-63
2024/01/08 00:33:38;;;;;;;11.43;6.93;;;3.30;64.60;;;;;;5030951;28;20106;-63
2024/01/08 00:36:05;;;;;;;8.75;6.93;;;3.30;64.40;;;;;;5029567;28;20049;-63
2024/01/08 00:38:33;;;;;;;9.13;6.72;;;3.20;64.30;;;;;;5031841;28;20040;-62
2024/01/08 00:41:04;;;;;;;8.82;7.22;;;3.20;64.50;;;;;;5031149;28;20045;-63
2024/01/08 00:43:31;;;;;;;10.32;6.72;;;3.20;64.60;;;;;;5025790;28;20045;-62
2024/01/08 00:46:00;;;;;;;8.98;6.93;;;3.20;64.90;;;;;;5031360;28;20438;-62
2024/01/08 00:48:29;;;;;;;8.90;6.88;;;3.20;64.80;;;;;;5026008;28;20040;-62
2024/01/08 00:50:59;;;;;;;9.07;6.40;;;3.20;64.70;;;;;;5031410;28;20519;-63
2024/01/08 00:53:30;;;;;;;8.15;6.13;;;3.20;64.50;;;;;;5032340;28;20460;-62
2024/01/08 00:56:01;;;;;;;6.75;5.38;;;3.20;64.30;;;;;;5029501;28;20033;-63
2024/01/08 00:58:28;;;;;;;5.75;5.15;;;3.20;64.40;;;;;;5026857;28;20049;-62
2024/01/08 01:01:06;;;;;;;5.55;4.05;;;3.20;64.30;;;;;;5015223;28;20056;-63
2024/01/08 01:03:33;;;;;;;4.88;4.30;;;3.10;64.00;;;;;;5029693;28;20045;-62
2024/01/08 01:05:59;;;;;;;4.82;3.75;;;3.10;63.80;;;;;;5023625;28;20057;-63
2024/01/08 01:08:26;;;;;;;3.58;2.83;;;3.10;63.60;;;;;;5031544;28;20045;-62
2024/01/08 01:10:53;;;;;;;4.40;3.20;;;3.10;63.40;;;;;;5031073;28;20037;-62
2024/01/08 01:13:20;;;;;;;5.15;2.97;;;3.10;63.20;;;;;;5028409;28;20091;-63
2024/01/08 01:15:49;;;;;;;6.78;3.40;;;3.10;63.20;;;;;;5019393;28;20042;-62
2024/01/08 01:18:16;;;;;;;4.50;3.50;;;3.10;63.80;;;;;;5026483;28;20129;-63
2024/01/08 01:20:44;;;;;;;5.63;2.90;;;3.00;63.10;;;;;;5016153;28;20061;-60
2024/01/08 01:23:10;;;;;;;3.75;3.40;;;3.00;63.10;;;;;;5032001;28;20095;-63
2024/01/08 01:25:37;;;;;;;4.65;3.20;;;3.00;63.20;;;;;;5029772;28;20037;-63
2024/01/08 01:28:04;;;;;;;3.40;2.92;;;3.00;63.30;;;;;;5025967;28;20041;-62
2024/01/08 01:30:33;;;;;;;4.18;3.35;;;3.00;63.30;;;;;;5029012;28;20061;-61
2024/01/08 01:32:59;;;;;;;6.03;3.38;;;3.00;64.00;;;;;;5030110;28;20052;-62
2024/01/08 01:35:26;;;;;;;4.70;2.95;;;3.00;63.20;;;;;;5028837;28;20046;-62
2024/01/08 01:37:53;;;;;;;4.63;3.65;;;3.00;63.00;;;;;;5025059;28;20038;-60
2024/01/08 01:40:22;;;;;;;4.70;2.97;;;3.00;62.80;;;;;;5030210;28;20496;-63
2024/01/08 01:42:54;;;;;;;3.97;3.30;;;3.00;62.80;;;;;;5031124;28;20441;-62
2024/01/08 01:45:21;;;;;;;;;;;3.00;62.70;;;;;;5027542;28;20044;-62
2024/01/08 01:47:54;;;;;;;2.85;2.53;;;3.00;62.70;;;;;;5023848;28;20282;-64
2024/01/08 01:50:26;;;;;;;2.65;2.40;;;3.00;62.50;;;;;;5014689;28;20539;-64
2024/01/08 01:52:57;;;;;;;2.97;2.50;;;3.00;62.50;;;;;;5030366;28;20048;-61
2024/01/08 01:55:24;;;;;;;3.38;3.05;;;3.00;62.70;;;;;;5029504;28;20046;-62
2024/01/08 01:57:52;;;;;;;4.35;2.95;;;3.00;62.50;;;;;;5020195;28;20049;-63
2024/01/08 02:00:19;;;;;;;4.03;2.78;;;3.00;62.30;;;;;;5025851;28;20137;-60
2024/01/08 02:02:46;;;;;;;5.93;3.00;;;2.90;62.20;;;;;;5030109;28;20053;-62
2024/01/08 02:05:14;;;;;;;3.47;2.97;;;3.00;62.30;;;;;;5022626;28;20045;-61
2024/01/08 02:07:44;;;;;;;4.30;2.88;;;3.00;62.30;;;;;;5028929;28;20554;-62
2024/01/08 02:10:14;;;;;;;4.70;2.55;;;3.00;62.20;;;;;;5029973;28;20069;-61
2024/01/08 02:12:43;;;;;;;3.67;2.80;;;3.00;62.10;;;;;;5025887;28;20105;-64
2024/01/08 02:15:10;;;;;;;3.78;2.88;;;3.00;62.00;;;;;;5019393;28;20120;-63
2024/01/08 02:17:38;;;;;;;3.95;3.17;;;3.00;62.00;;;;;;5027365;28;20467;-61
2024/01/08 02:20:05;;;;;;;5.03;3.42;;;3.00;62.20;;;;;;5017394;28;20492;-61
2024/01/08 02:22:41;;;;;;;6.72;3.45;;;3.00;62.40;;;;;;5027755;28;20075;-64
2024/01/08 02:25:08;;;;;;;7.10;3.70;;;3.00;62.10;;;;;;5028980;28;20034;-60
2024/01/08 02:27:35;;;;;;;4.80;3.75;;;3.00;62.30;;;;;;5023927;28;20046;-64
2024/01/08 02:30:02;;;;;;;5.90;4.25;;;3.00;62.50;;;;;;5004843;28;20088;-62
2024/01/08 02:32:29;;;;;;;6.10;4.28;;;3.00;62.40;;;;;;5029992;28;20503;-62
2024/01/08 02:34:55;;;;;;;5.13;4.20;;;3.00;62.20;;;;;;5025981;28;20120;-62
2024/01/08 02:37:22;;;;;;;6.03;5.32;;;3.00;62.30;;;;;;5022583;28;20096;-62
2024/01/08 02:39:50;;;;;;;7.15;4.97;;;3.00;62.30;;;;;;5028024;28;20069;-64
2024/01/08 02:42:18;;;;;;;5.72;4.40;;;3.00;62.40;;;;;;5030199;28;20049;-62
2024/01/08 02:44:45;;;;;;;6.35;5.10;;;3.00;62.50;;;;;;5023736;28;20096;-62
2024/01/08 02:47:12;;;;;;;7.15;5.38;;;3.00;62.50;;;;;;5028832;28;20033;-62
2024/01/08 02:49:39;;;;;;;8.27;5.28;;;2.90;62.50;;;;;;5017247;28;20045;-63
2024/01/08 02:52:13;;;;;;;6.20;5.05;;;2.90;62.50;;;;;;5023908;28;20403;-62
2024/01/08 02:54:39;;;;;;;6.85;5.10;;;2.90;62.50;;;;;;5027883;28;20092;-63
2024/01/08 02:57:06;;;;;;;8.02;5.53;;;2.90;62.50;;;;;;5021304;28;20112;-62
2024/01/08 02:59:33;;;;;;;6.60;4.90;;;2.90;62.70;;;;;;5028436;28;20049;-62
2024/01/08 03:02:02;;;;;;;7.80;5.95;;;2.80;62.50;;;;;;5025096;28;20046;-62
2024/01/08 03:04:29;;;;;;;7.78;5.15;;;2.80;62.40;;;;;;5018650;28;20042;-61
2024/01/08 03:06:56;;;;;;;6.97;5.50;;;2.70;62.40;;;;;;5027508;28;20419;-62
2024/01/08 03:09:22;;;;;;;5.95;5.15;;;2.60;62.50;;;;;;5028673;28;20041;-63
2024/01/08 03:11:49;;;;;;;7.72;4.65;;;2.60;62.70;;;;;;5029117;28;20049;-61
2024/01/08 03:14:16;;;;;;;7.20;5.25;;;2.60;62.70;;;;;;5023082;28;20041;-62
2024/01/08 03:16:43;;;;;;;6.40;5.75;;;2.50;62.90;;;;;;5026688;28;20103;-62
2024/01/08 03:19:09;;;;;;;6.57;5.10;;;2.50;63.20;;;;;;5025632;28;20064;-62
2024/01/08 03:21:39;;;;;;;5.70;4.60;;;2.40;63.40;;;;;;5029063;28;20073;-62
2024/01/08 03:24:06;;;;;;;7.60;5.25;;;2.40;63.50;;;;;;5022786;28;20415;-62
2024/01/08 03:26:32;;;;;;;6.47;5.13;;;2.40;63.60;;;;;;5026103;28;20037;-62
2024/01/08 03:28:59;;;;;;;8.10;4.80;;;2.40;63.70;;;;;;5023207;28;20041;-62
2024/01/08 03:31:26;;;;;;;6.72;5.28;;;2.40;63.80;;;;;;5028415;28;20730;-61
2024/01/08 03:33:54;;;;;;;7.13;4.93;;;2.30;63.60;;;;;;5027891;28;20045;-61
2024/01/08 03:36:20;;;;;;;5.68;4.82;;;2.30;63.70;;;;;;5022071;28;20061;-61
2024/01/08 03:38:50;;;;;;;6.55;4.78;;;2.40;63.80;;;;;;5027947;28;20048;-63
2024/01/08 03:41:17;;;;;;;7.75;5.15;;;2.30;63.90;;;;;;5028667;28;20053;-62
2024/01/08 03:43:44;;;;;;;6.72;5.20;;;2.30;64.00;;;;;;5024589;28;20052;-62
2024/01/08 03:46:13;;;;;;;6.88;5.18;;;2.30;64.10;;;;;;5025292;28;20045;-62
2024/01/08 03:48:40;;;;;;;6.55;4.68;;;2.30;64.20;;;;;;5023660;28;20092;-62
2024/01/08 03:51:06;;;;;;;8.02;5.65;;;2.30;64.20;;;;;;5031581;28;20038;-62
2024/01/08 03:53:33;;;;;;;6.75;4.82;;;2.30;64.30;;;;;;5033164;28;20103;-61
2024/01/08 03:56:00;;;;;;;6.97;5.30;;;2.30;64.30;;;;;;5029686;28;20064;-62
2024/01/08 03:58:27;;;;;;;8.95;6.18;;;2.40;64.40;;;;;;5032927;28;20099;-62
2024/01/08 04:00:53;;;;;;;10.40;5.25;;;2.40;64.40;;;;;;5029864;28;20045;-62
2024/01/08 04:03:21;;;;;;;7.05;5.30;;;2.40;64.60;;;;;;5029981;28;20065;-62
2024/01/08 04:05:48;;;;;;;6.40;4.95;;;2.40;64.40;;;;;;5030099;28;20128;-64
2024/01/08 04:08:15;;;;;;;6.38;4.93;;;2.40;64.40;;;;;;5031587;28;20056;-62
2024/01/08 04:10:44;;;;;;;5.85;4.90;;;2.40;64.50;;;;;;5032601;28;20496;-62
2024/01/08 04:13:11;;;;;;;8.57;5.50;;;2.40;64.50;;;;;;5024918;28;20290;-63
2024/01/08 04:15:38;;;;;;;7.32;5.65;;;2.40;64.40;;;;;;5031576;28;20503;-62
2024/01/08 04:18:05;;;;;;;8.55;6.13;;;2.40;64.40;;;;;;5025883;28;20465;-61
2024/01/08 04:20:34;;;;;;;8.23;5.43;;;2.40;64.50;;;;;;5029843;28;20574;-62
2024/01/08 04:23:00;;;;;;;7.82;5.90;;;2.40;64.40;;;;;;5031957;28;20442;-61
2024/01/08 04:25:30;;;;;;;7.40;5.60;;;2.40;64.70;;;;;;5032091;28;20029;-63
2024/01/08 04:27:56;;;;;;;6.57;5.22;;;2.40;64.80;;;;;;5025875;28;20888;-62
2024/01/08 04:30:26;;;;;;;7.35;5.32;;;2.40;64.80;;;;;;5025252;28;20037;-62
2024/01/08 04:32:55;;;;;;;6.43;4.88;;;2.50;65.00;;;;;;5028825;28;20518;-62
2024/01/08 04:35:22;;;;;;;8.95;5.47;;;2.40;65.50;;;;;;5032221;28;20041;-63
2024/01/08 04:37:51;;;;;;;8.43;5.82;;;2.50;64.90;;;;;;5030824;28;20116;-63
2024/01/08 04:40:19;;;;;;;8.10;6.03;;;2.50;64.90;;;;;;5029872;28;20041;-62
2024/01/08 04:42:51;;;;;;;9.27;5.70;;;2.50;64.80;;;;;;5031594;28;20052;-62
2024/01/08 04:45:18;;;;;;;8.07;5.90;;;2.50;64.80;;;;;;5031814;28;20460;-61
2024/01/08 04:47:49;;;;;;;6.82;4.88;;;2.50;64.80;;;;;;5029549;28;20061;-62
2024/01/08 04:50:16;;;;;;;8.10;6.30;;;2.50;64.80;;;;;;5029742;28;20535;-62
2024/01/08 04:52:46;;;;;;;9.18;6.35;;;2.50;64.90;;;;;;5030886;28;20045;-62
2024/01/08 04:55:15;;;;;;;8.57;6.43;;;2.50;64.90;;;;;;5027013;28;20418;-60
2024/01/08 04:57:43;;;;;;;10.90;7.15;;;2.50;64.90;;;;;;5025726;28;20044;-62
2024/01/08 05:00:11;;;;;;;11.40;6.97;;;2.50;64.80;;;;;;5030994;28;20099;-61
2024/01/08 05:02:38;;;;;;;9.07;6.15;;;2.50;65.00;;;;;;5029398;28;20771;-62
2024/01/08 05:05:07;;;;;;;8.65;7.00;;;2.50;65.10;;;;;;5028568;28;20049;-62
2024/01/08 05:07:33;;;;;;;9.85;7.32;;;2.50;65.00;;;;;;5031033;28;20065;-62
2024/01/08 05:10:03;;;;;;;10.32;6.70;;;2.50;65.10;;;;;;5031224;28;20048;-63
2024/01/08 05:12:34;;;;;;;8.23;6.93;;;2.50;65.20;;;;;;5011873;28;20045;-62
2024/01/08 05:15:01;;;;;;;12.27;7.22;;;2.50;65.30;;;;;;5025001;28;20045;-61
2024/01/08 05:17:28;;;;;;;10.88;7.45;;;2.50;65.30;;;;;;5029231;28;20041;-64
2024/01/08 05:19:55;;;;;;;11.13;7.38;;;2.60;65.40;;;;;;5028156;28;20446;-62
2024/01/08 05:22:21;;;;;;;9.55;6.90;;;2.60;65.40;;;;;;5031279;28;20052;-61
2024/01/08 05:24:48;;;;;;;9.48;7.10;;;2.60;65.40;;;;;;5031221;28;20156;-62
2024/01/08 05:27:15;;;;;;;9.45;7.70;;;2.60;65.30;;;;;;5024145;28;20073;-63
2024/01/08 05:29:41;;;;;;;10.30;8.20;;;2.60;65.20;;;;;;5030035;28;20044;-62
2024/01/08 05:32:08;;;;;;;10.55;7.55;;;2.60;65.30;;;;;;5031198;28;20512;-61
2024/01/08 05:34:36;;;;;;;10.10;7.07;;;2.60;65.30;;;;;;5027032;28;20412;-62
2024/01/08 05:37:03;;;;;;;10.43;7.20;;;2.60;65.30;;;;;;5029771;28;20073;-63
2024/01/08 05:39:29;;;;;;;8.85;6.55;;;2.50;65.30;;;;;;5030089;28;20586;-62
2024/01/08 05:41:58;;;;;;;8.93;6.88;;;2.50;65.20;;;;;;5027026;28;20037;-62
2024/01/08 05:44:25;;;;;;;12.77;7.85;;;2.50;65.30;;;;;;5012926;28;20073;-62
2024/01/08 05:46:52;;;;;;;10.25;7.32;;;2.50;65.30;;;;;;5025165;28;20046;-63
2024/01/08 05:49:18;;;;;;;10.13;6.45;;;2.50;65.40;;;;;;5025422;28;20050;-62
2024/01/08 05:51:45;;;;;;;10.77;6.75;;;2.50;65.50;;;;;;5028055;28;20518;-62
2024/01/08 05:54:12;;;;;;;13.32;7.72;;;2.50;65.50;;;;;;5020682;28;20041;-63
2024/01/08 05:56:38;;;;;;;9.55;7.05;;;2.50;65.60;;;;;;5025474;28;20137;-62
2024/01/08 05:59:07;;;;;;;10.63;7.88;;;2.50;65.70;;;;;;5024570;28;20658;-62
2024/01/08 06:01:34;;;;;;;10.23;7.47;;;2.50;65.80;;;;;;5030445;28;20570;-63
2024/01/08 06:04:01;;;;;;;9.85;7.90;;;2.50;65.80;;;;;;5021866;28;20048;-62
2024/01/08 06:06:28;;;;;;;9.98;6.97;;;2.50;65.80;;;;;;5024199;28;20045;-63
2024/01/08 06:08:55;;;;;;;9.90;7.80;;;2.50;65.80;;;;;;5026605;28;20047;-63
2024/01/08 06:11:21;;;;;;;11.30;8.05;;;2.50;65.80;;;;;;5024837;28;20041;-63
2024/01/08 06:13:48;;;;;;;7.93;7.07;;;2.60;65.90;;;;;;5026318;28;20119;-62
2024/01/08 06:16:16;;;;;;;12.48;7.57;;;2.50;65.90;;;;;;5019945;28;20052;-63
2024/01/08 06:18:42;;;;;;;11.48;8.35;;;2.50;65.90;;;;;;5024740;28;20049;-61
2024/01/08 06:21:10;;;;;;;11.25;8.38;;;2.50;65.90;;;;;;5019250;28;20138;-63
2024/01/08 06:23:36;;;;;;;10.50;8.20;;;2.50;65.90;;;;;;5026932;28;20061;-62
2024/01/08 06:26:04;;;;;;;10.90;8.20;;;2.60;65.90;;;;;;5027231;28;20033;-65
2024/01/08 06:28:32;;;;;;;12.15;7.65;;;2.60;65.90;;;;;;5025355;28;20048;-62
2024/01/08 06:31:03;;;;;;;13.13;8.95;;;2.60;66.00;;;;;;5025371;28;20049;-62
2024/01/08 06:33:30;;;;;;;10.80;7.70;;;2.60;66.00;;;;;;5027204;28;20125;-63
2024/01/08 06:35:58;;;;;;;11.45;7.97;;;2.70;66.00;;;;;;5026475;28;20057;-62
2024/01/08 06:38:24;;;;;;;11.05;8.15;;;2.50;66.00;;;;;;5024352;28;20064;-63
2024/01/08 06:40:51;;;;;;;10.32;7.97;;;2.60;66.00;;;;;;5027369;28;20053;-62
2024/01/08 06:43:18;;;;;;;13.10;8.40;;;2.50;66.10;;;;;;5028369;28;20450;-62
2024/01/08 06:45:45;;;;;;;9.88;7.68;;;2.50;66.10;;;;;;5024885;28;20052;-62
2024/01/08 06:48:11;;;;;;;12.88;8.45;;;2.60;66.30;;;;;;5018960;28;20033;-62
2024/01/08 06:50:40;;;;;;;10.65;8.38;;;2.50;66.30;;;;;;5023557;28;20045;-61
2024/01/08 06:53:07;;;;;;;12.55;8.45;;;2.60;66.30;;;;;;5009845;28;20053;-63
2024/01/08 06:55:34;;;;;;;11.75;8.18;;;2.60;66.40;;;;;;5027849;28;20056;-63
2024/01/08 06:58:01;;;;;;;15.02;9.65;;;2.60;66.40;;;;;;5023982;28;20704;-61
2024/01/08 07:00:28;;;;;;;14.13;9.23;;;2.60;66.60;;;;;;5007033;28;20041;-62
2024/01/08 07:02:55;;;;;;;11.10;8.70;;;2.60;66.70;;;;;;5021987;28;20041;-62
2024/01/08 07:05:22;;;;;;;12.98;8.40;;;2.60;66.90;;;;;;5027565;28;20055;-62
2024/01/08 07:07:49;;;;;;;12.82;9.73;;;2.60;66.90;;;;;;5023065;28;21019;-61
2024/01/08 07:10:16;;;;;;;13.93;9.68;;;2.60;66.90;;;;;;5021849;28;20495;-63
2024/01/08 07:12:42;;;;;;;12.00;8.80;;;2.60;67.00;;;;;;5015703;28;20567;-62
2024/01/08 07:15:38;;;;;;;14.77;8.95;;;2.70;67.20;;;;;;5018890;28;20076;-63
2024/01/08 07:18:10;;;;;;;12.45;8.48;;;2.60;67.30;;;;;;5020113;28;20100;-62
2024/01/08 07:20:38;;;;;;;11.15;8.32;;;2.60;67.20;;;;;;5027558;28;20049;-62
2024/01/08 07:23:10;;;;;;;11.73;8.82;;;2.60;67.30;;;;;;5021763;28;20041;-63
2024/01/08 07:25:38;;;;;;;10.43;8.07;;;2.60;67.50;;;;;;5010569;28;20045;-63
2024/01/08 07:28:07;;;;;;;10.35;9.23;;;2.60;67.40;;;;;;5027603;28;20077;-62
2024/01/08 07:30:35;;;;;;;11.85;8.15;;;2.60;67.60;;;;;;5005881;28;20040;-61
2024/01/08 07:33:02;;;;;;;11.48;7.88;;;2.60;67.70;;;;;;5027634;28;20045;-61
2024/01/08 07:35:30;;;;;;;12.75;9.52;;;2.60;67.70;;;;;;5029034;28;20033;-62
2024/01/08 07:37:57;;;;;;;12.85;8.85;;;2.60;68.50;;;;;;5025474;28;20049;-62
2024/01/08 07:40:25;;;;;;;10.63;8.70;;;2.60;68.00;;;;;;5015433;28;20057;-62
2024/01/08 07:42:56;;;;;;;12.05;8.48;;;2.60;68.10;;;;;;5010528;28;20913;-63
2024/01/08 07:45:23;;;;;;;13.32;9.00;;;2.60;68.10;;;;;;5028854;28;20050;-62
2024/01/08 07:47:50;;;;;;;11.80;9.48;;;2.60;68.00;;;;;;5020714;28;20073;-60
2024/01/08 07:50:19;;;;;;;11.85;9.23;;;2.60;67.90;;;;;;5024540;28;20033;-60
2024/01/08 07:52:48;;;;;;;14.02;9.68;;;2.60;67.90;;;;;;5028316;28;20125;-60
2024/01/08 07:55:16;;;;;;;11.50;9.68;;;2.70;67.70;;;;;;5027938;28;20045;-60
2024/01/08 07:57:43;;;;;;;13.30;9.50;;;2.70;67.70;;;;;;5022604;28;20114;-62
2024/01/08 08:00:11;;;;;;;12.25;9.55;;;2.70;67.80;;;;;;5029491;28;20128;-61
2024/01/08 08:02:41;;;;;;;14.02;8.68;;;2.70;67.80;;;;;;5028811;28;20148;-61
2024/01/08 08:05:09;;;;;;;11.32;8.32;;;2.70;67.60;;;;;;5026841;28;20058;-62
2024/01/08 08:07:35;;;;;;;13.30;8.93;;;2.70;67.50;;;;;;5024230;28;20059;-63
2024/01/08 08:10:03;;;;;;;11.48;8.80;;;2.70;67.60;;;;;;5021905;28;20070;-61
2024/01/08 08:12:30;;;;;;;11.90;8.35;;;2.70;67.80;;;;;;5027400;28;20069;-60
2024/01/08 08:14:58;;;;;;;16.17;9.13;;;2.70;67.70;;;;;;5024009;28;20208;-64
2024/01/08 08:17:25;;;;;;;9.40;7.25;;;2.70;67.70;;;;;;5023781;28;20052;-62
2024/01/08 08:19:53;;;;;;;11.35;7.63;;;2.70;67.60;;;;;;5025159;28;20057;-62
2024/01/08 08:22:20;;;;;;;8.50;6.30;;;2.70;67.50;;;;;;5028567;28;20427;-62
2024/01/08 08:24:47;;;;;;;9.45;7.00;;;2.70;67.30;;;;;;5021501;28;20385;-62
2024/01/08 08:27:14;;;;;;;9.18;6.72;;;2.70;67.30;;;;;;5026070;28;20111;-63
2024/01/08 08:29:43;;;;;;;9.77;7.13;;;2.80;67.30;;;;;;5027990;28;20504;-62
2024/01/08 08:32:11;;;;;;;10.73;6.70;;;2.80;67.20;;;;;;5023888;28;20523;-63
2024/01/08 08:34:39;;;;;;;8.15;6.47;;;2.80;67.20;;;;;;5026606;28;20033;-62
2024/01/08 08:37:09;;;;;;;9.50;6.45;;;2.80;67.10;;;;;;5028980;28;20045;-62
2024/01/08 08:39:37;;;;;;;10.10;6.80;;;2.80;67.20;;;;;;5024088;28;20836;-62
2024/01/08 08:42:05;;;;;;;9.38;6.30;;;2.80;67.00;;;;;;5029926;28;20049;-61
2024/01/08 08:44:33;;;;;;;10.63;7.18;;;2.80;66.90;;;;;;5031466;28;20273;-63
2024/01/08 08:47:02;;;;;;;9.95;7.40;;;2.80;66.80;;;;;;5030319;28;20124;-62
2024/01/08 08:49:28;;;;;;;11.65;8.55;;;2.80;66.80;;;;;;5022317;28;20136;-64
2024/01/08 08:51:58;;;;;;;10.45;7.38;;;2.90;67.00;;;;;;5028977;28;20053;-62
2024/01/08 08:54:25;;;;;;;8.45;6.85;;;2.90;67.10;;;;;;5052746;23;20041;-59
2024/01/08 08:56:52;;;;;;;13.32;8.43;;;2.90;67.10;;;;;;5043014;28;20091;-60
2024/01/08 08:59:20;;;;;;;10.73;8.20;;;2.90;67.10;;;;;;5048647;28;20389;-58
2024/01/08 09:01:50;;;;;;;9.07;7.25;;;2.90;67.30;;;;;;5046671;28;20049;-56
2024/01/08 09:04:17;;;;;;;8.93;7.50;;;3.00;67.50;;;;;;5036213;28;20055;-57
2024/01/08 09:06:47;;;;;;;12.50;7.95;;;3.00;67.40;;;;;;5031639;28;20052;-56
2024/01/08 09:09:13;;;;;;;11.45;8.07;;;3.00;67.30;;;;;;5033656;28;20558;-57
2024/01/08 09:11:40;;;;;;;11.05;7.38;;;3.00;67.30;;;;;;5032425;28;20042;-57
2024/01/08 09:14:08;;;;;;;12.18;7.80;;;3.00;67.40;;;;;;5029824;28;20033;-58
2024/01/08 09:16:38;;;;;;;10.15;7.47;;;3.10;67.50;;;;;;5021526;28;22194;-59
2024/01/08 09:19:05;;;;;;;10.55;8.13;;;3.10;67.30;;;;;;5025548;28;20049;-56
2024/01/08 09:21:32;;;;;;;10.77;7.95;;;3.10;67.30;;;;;;5022946;28;20042;-59
2024/01/08 09:23:59;;;;;;;11.25;8.57;;;3.10;67.40;;;;;;5019959;28;20087;-57
2024/01/08 09:26:25;;;;;;;7.95;6.63;;;3.20;67.40;;;;;;5024728;28;20033;-57
2024/01/08 09:28:52;;;;;;;10.95;7.38;;;3.20;67.30;;;;;;5021487;28;20033;-56
2024/01/08 09:31:20;;;;;;;9.68;7.63;;;3.20;67.30;;;;;;5024263;28;20507;-58
2024/01/08 09:33:47;;;;;;;9.23;6.68;;;3.20;67.30;;;;;;5022903;28;20072;-58
2024/01/08 09:36:14;;;;;;;9.00;6.68;;;3.20;67.40;;;;;;5023161;28;20215;-60
2024/01/08 09:38:41;;;;;;;10.52;7.60;;;3.20;67.40;;;;;;5021352;28;20061;-58
2024/01/08 09:41:12;;;;;;;9.25;7.47;;;3.30;67.50;;;;;;5023270;28;20038;-58
2024/01/08 09:43:51;;;;;;;11.05;7.88;;;3.30;67.60;;;;;;5021200;28;20107;-57
2024/01/08 09:46:29;;;;;;;9.70;7.18;;;3.30;67.50;;;;;;5026244;28;20182;-62
2024/01/08 09:48:58;;;;;;;9.05;7.68;;;3.30;67.50;;;;;;5034380;28;20117;-60
2024/01/08 09:51:27;;;;;;;10.18;7.30;;;3.30;67.50;;;;;;5034449;28;20505;-60
2024/01/08 09:53:58;;;;;;;11.43;8.18;;;3.30;67.70;;;;;;5023679;28;20050;-57
2024/01/08 09:56:26;;;;;;;10.95;7.90;;;3.30;67.80;;;;;;5033899;28;20407;-60
2024/01/08 09:58:53;;;;;;;10.32;8.25;;;3.30;68.00;;;;;;5029311;28;20065;-57
2024/01/08 10:01:20;;;;;;;10.25;7.30;;;3.30;68.00;;;;;;5031075;28;20057;-60
2024/01/08 10:03:49;;;;;;;14.10;8.45;;;3.30;68.10;;;;;;5030198;28;20103;-61
2024/01/08 10:06:16;;;;;;;12.98;8.55;;;3.40;68.30;;;;;;5031872;28;20058;-59
2024/01/08 10:08:43;;;;;;;10.02;7.50;;;3.40;68.50;;;;;;5035234;28;20042;-58
2024/01/08 10:11:11;;;;;;;9.68;7.55;;;3.40;68.50;;;;;;5031332;28;20496;-59
2024/01/08 10:13:39;;;;;;;10.68;8.07;;;3.40;68.40;;;;;;5029059;28;20412;-59
2024/01/08 10:16:10;;;;;;;10.23;7.93;;;3.40;68.60;;;;;;5028785;28;20816;-60
2024/01/08 10:18:38;;;;;;;10.00;8.38;;;3.40;68.60;;;;;;5024675;28;20302;-59
2024/01/08 10:21:10;;;;;;;11.85;8.07;;;3.40;68.60;;;;;;5030527;28;20042;-57
2024/01/08 10:23:38;;;;;;;11.30;8.52;;;3.50;68.60;;;;;;5029814;28;20045;-59
2024/01/08 10:26:05;;;;;;;10.77;7.85;;;3.50;68.60;;;;;;5025797;28;20049;-59
2024/01/08 10:28:36;;;;;;;10.75;7.93;;;3.50;68.80;;;;;;5029762;28;20037;-59
2024/01/08 10:31:08;;;;;;;11.88;7.90;;;3.50;68.90;;;;;;5027735;28;20038;-58
2024/01/08 10:33:36;;;;;;;9.02;7.32;;;3.50;68.80;;;;;;5029140;28;20041;-60
2024/01/08 10:36:04;;;;;;;10.50;7.20;;;3.50;68.90;;;;;;5029945;28;20072;-58
2024/01/08 10:38:32;;;;;;;12.02;7.70;;;3.50;68.80;;;;;;5005967;28;20071;-60
2024/01/08 10:41:03;;;;;;;8.90;6.22;;;3.50;68.60;;;;;;5028514;28;20041;-60
2024/01/08 10:43:31;;;;;;;8.82;7.05;;;3.60;68.50;;;;;;5028888;28;20038;-60
2024/01/08 10:46:04;;;;;;;9.35;6.40;;;3.60;68.10;;;;;;5024862;28;20053;-59
2024/01/08 10:48:42;;;;;;;7.90;6.10;;;3.60;67.80;;;;;;5020360;28;20116;-60
2024/01/08 10:51:10;;;;;;;6.32;5.25;;;3.60;67.20;;;;;;5027915;28;20049;-58
2024/01/08 10:53:47;;;;;;;6.68;5.43;;;3.60;66.80;;;;;;5029336;28;20445;-60
2024/01/08 10:56:20;;;;;;;7.03;5.35;;;3.70;65.90;;;;;;5026425;28;20049;-59
2024/01/08 10:59:03;;;;;;;5.53;4.40;;;3.60;65.30;;;;;;5022582;28;20045;-59
2024/01/08 11:01:31;;;;;;;6.82;4.80;;;3.60;63.80;;;;;;5021447;28;20515;-57
2024/01/08 11:04:05;;;;;;;6.82;4.57;;;3.60;64.10;;;;;;5027434;28;20103;-60
2024/01/08 11:06:38;;;;;;;6.43;4.57;;;3.50;63.10;;;;;;5026047;28;20765;-60
2024/01/08 11:09:29;;;;;;;5.47;4.45;;;3.40;62.80;;;;;;5022961;28;20041;-60
2024/01/08 11:11:57;;;;;;;7.75;4.60;;;3.40;62.20;;;;;;5016549;28;20061;-60
2024/01/08 11:14:26;;;;;;;7.47;4.88;;;3.40;63.10;;;;;;5030079;28;20042;-61
2024/01/08 11:16:55;;;;;;;6.88;4.25;;;3.30;63.00;;;;;;5002154;28;20099;-59
2024/01/08 11:19:24;;;;;;;6.85;4.20;;;3.20;62.80;;;;;;5020936;28;20056;-60
2024/01/08 11:21:57;;;;;;;5.75;4.47;;;3.20;62.80;;;;;;5026744;28;20069;-61
2024/01/08 11:24:24;;;;;;;6.22;3.83;;;3.20;62.50;;;;;;5027606;28;20041;-58
2024/01/08 11:26:52;;;;;;;6.20;4.00;;;3.20;62.40;;;;;;5019342;28;20056;-60
2024/01/08 11:29:20;;;;;;;6.13;4.07;;;3.20;62.00;;;;;;5023717;28;20456;-58
2024/01/08 11:31:51;;;;;;;6.72;5.05;;;3.10;61.30;;;;;;5025962;28;20143;-61
2024/01/08 11:34:37;;;;;;;6.97;4.43;;;3.20;61.30;;;;;;5027071;28;20095;-59
2024/01/08 11:37:31;;;;;;;6.47;3.95;;;3.10;60.80;;;;;;5022947;28;20128;-61
2024/01/08 11:40:03;;;;;;;5.65;3.90;;;3.10;59.70;;;;;;5026537;28;20077;-59
2024/01/08 11:42:33;;;;;;;5.17;4.13;;;3.10;60.10;;;;;;5016186;28;20050;-62
2024/01/08 11:45:02;;;;;;;6.53;3.67;;;3.00;60.20;;;;;;5022938;28;20284;-57
2024/01/08 11:47:36;;;;;;;5.95;3.53;;;3.00;59.80;;;;;;5029259;28;20048;-59
2024/01/08 11:50:04;;;;;;;4.53;3.83;;;3.00;59.20;;;;;;5024756;28;20053;-57
2024/01/08 11:52:33;;;;;;;7.78;4.40;;;3.00;59.70;;;;;;5029087;28;20045;-59
2024/01/08 11:55:00;;;;;;;9.60;4.80;;;2.90;59.50;;;;;;5027480;28;20585;-60
2024/01/08 11:57:26;;;;;;;6.57;4.05;;;2.90;59.40;;;;;;5028386;28;20116;-60
2024/01/08 11:59:54;;;;;;;7.05;4.40;;;2.90;59.50;;;;;;5025005;28;20385;-58
2024/01/08 12:02:28;;;;;;;5.93;4.53;;;2.90;59.60;;;;;;5028677;28;20049;-60
2024/01/08 12:04:57;;;;;;;5.10;3.60;;;2.90;59.40;;;;;;5026654;28;20046;-60
2024/01/08 12:07:25;;;;;;;5.32;3.75;;;2.90;59.70;;;;;;5025884;28;20033;-59
2024/01/08 12:09:53;;;;;;;7.43;4.50;;;2.90;59.70;;;;;;5027496;28;20087;-59
2024/01/08 12:12:23;;;;;;;5.13;4.03;;;2.90;59.70;;;;;;5032134;28;20069;-60
2024/01/08 12:14:50;;;;;;;6.03;3.70;;;2.90;59.40;;;;;;5025743;28;20096;-59
2024/01/08 12:17:18;;;;;;;5.60;3.10;;;2.90;59.10;;;;;;5032350;28;20037;-58
2024/01/08 12:19:51;;;;;;;6.00;4.03;;;2.90;59.00;;;;;;5028181;28;20049;-58
2024/01/08 12:22:18;;;;;;;5.25;3.75;;;2.90;58.70;;;;;;5031787;28;20053;-58
2024/01/08 12:24:52;;;;;;;6.03;3.53;;;2.90;58.70;;;;;;5027243;28;20052;-59
2024/01/08 12:27:20;;;;;;;3.78;2.20;;;2.90;58.30;;;;;;5029051;28;20042;-61
2024/01/08 12:29:49;;;;;;;5.78;4.03;;;2.90;58.60;;;;;;5014599;28;20042;-59
2024/01/08 12:32:18;;;;;;;7.30;3.80;;;3.00;58.50;;;;;;5027275;28;20096;-57
2024/01/08 12:34:45;;;;;;;4.97;4.00;;;3.00;58.20;;;;;;5026728;28;20054;-59
2024/01/08 12:37:13;;;;;;;5.40;3.53;;;3.00;58.20;;;;;;5032534;28;21044;-58
2024/01/08 12:39:40;;;;;;;4.95;3.50;;;3.00;58.00;;;;;;5029755;28;20049;-61
2024/01/08 12:42:09;;;;;;;5.63;4.20;;;3.00;58.10;;;;;;5031740;28;20053;-59
2024/01/08 12:44:36;;;;;;;5.13;3.38;;;3.00;57.90;;;;;;5037099;28;20136;-59
2024/01/08 12:47:05;;;;;;;5.32;3.28;;;3.00;58.00;;;;;;5034551;28;20053;-60
2024/01/08 12:49:32;;;;;;;7.22;4.00;;;3.00;57.60;;;;;;5027409;28;20404;-59
2024/01/08 12:52:00;;;;;;;6.40;3.78;;;3.00;57.30;;;;;;5031442;28;20060;-59
2024/01/08 12:54:29;;;;;;;3.95;3.47;;;3.00;57.10;;;;;;5034686;28;20107;-59
2024/01/08 12:56:57;;;;;;;7.10;3.83;;;3.10;57.00;;;;;;5040896;28;20128;-57
2024/01/08 12:59:27;;;;;;;5.47;4.07;;;3.00;57.20;;;;;;5035899;28;20048;-60